sensor_id;sensor_type;location;lat;lon;timestamp;pressure;altitude;pressure_sealevel;temperature;humidity
76321;BME280;65132;52.088;5.402;2023-04-08T00:00:16;102398.69;;;8.34;100.00
76321;BME280;65132;52.088;5.402;2023-04-08T00:02:45;102405.22;;;8.30;100.00
76321;BME280;65132;52.088;5.402;2023-04-08T00:05:14;102403.31;;;8.32;100.00
76321;BME280;65132;52.088;5.402;2023-04-08T00:07:40;102397.91;;;8.32;100.00
76321;BME280;65132;52.088;5.402;2023-04-08T00:10:07;102404.63;;;8.25;100.00
76321;BME280;65132;52.088;5.402;2023-04-08T00:12:34;102395.81;;;8.21;100.00
76321;BME280;65132;52.088;5.402;2023-04-08T00:15:08;102403.03;;;8.21;100.00
76321;BME280;65132;52.088;5.402;2023-04-08T00:17:36;102399.22;;;8.25;100.00
76321;BME280;65132;52.088;5.402;2023-04-08T00:20:04;102398.41;;;8.23;100.00
76321;BME280;65132;52.088;5.402;2023-04-08T00:22:33;102401.41;;;8.18;100.00
76321;BME280;65132;52.088;5.402;2023-04-08T00:25:00;102405.31;;;8.13;100.00
76321;BME280;65132;52.088;5.402;2023-04-08T00:27:26;102393.94;;;8.08;100.00
76321;BME280;65132;52.088;5.402;2023-04-08T00:29:53;102398.63;;;8.04;100.00
76321;BME280;65132;52.088;5.402;2023-04-08T00:32:19;102407.31;;;8.09;100.00
76321;BME280;65132;52.088;5.402;2023-04-08T00:34:46;102402.22;;;8.05;100.00
76321;BME280;65132;52.088;5.402;2023-04-08T00:37:15;102406.72;;;8.04;100.00
76321;BME280;65132;52.088;5.402;2023-04-08T00:39:41;102399.41;;;8.06;100.00
76321;BME280;65132;52.088;5.402;2023-04-08T00:42:22;102402.91;;;8.08;100.00
76321;BME280;65132;52.088;5.402;2023-04-08T00:44:51;102405.25;;;7.99;100.00
76321;BME280;65132;52.088;5.402;2023-04-08T00:47:23;102396.75;;;7.91;100.00
76321;BME280;65132;52.088;5.402;2023-04-08T00:49:55;102406.22;;;7.82;100.00
76321;BME280;65132;52.088;5.402;2023-04-08T00:52:21;102408.31;;;7.77;100.00
76321;BME280;65132;52.088;5.402;2023-04-08T00:54:51;102405.22;;;7.69;100.00
76321;BME280;65132;52.088;5.402;2023-04-08T00:57:18;102407.81;;;7.71;100.00
76321;BME280;65132;52.088;5.402;2023-04-08T00:59:44;102415.03;;;7.70;100.00
76321;BME280;65132;52.088;5.402;2023-04-08T01:05:01;102416.94;;;7.68;100.00
76321;BME280;65132;52.088;5.402;2023-04-08T01:07:35;102419.53;;;7.70;100.00
76321;BME280;65132;52.088;5.402;2023-04-08T01:10:15;102421.53;;;7.66;100.00
76321;BME280;65132;52.088;5.402;2023-04-08T01:12:48;102430.50;;;7.67;100.00
76321;BME280;65132;52.088;5.402;2023-04-08T01:15:20;102417.00;;;7.67;100.00
76321;BME280;65132;52.088;5.402;2023-04-08T01:17:49;102425.38;;;7.62;100.00
76321;BME280;65132;52.088;5.402;2023-04-08T01:20:18;102431.09;;;7.56;100.00
76321;BME280;65132;52.088;5.402;2023-04-08T01:25:38;102435.53;;;7.57;100.00
76321;BME280;65132;52.088;5.402;2023-04-08T01:28:17;102431.53;;;7.49;100.00
76321;BME280;65132;52.088;5.402;2023-04-08T01:30:45;102437.72;;;7.51;100.00
76321;BME280;65132;52.088;5.402;2023-04-08T01:33:16;102436.22;;;7.45;100.00
76321;BME280;65132;52.088;5.402;2023-04-08T01:35:44;102433.53;;;7.45;100.00
76321;BME280;65132;52.088;5.402;2023-04-08T01:38:14;102432.13;;;7.38;100.00
76321;BME280;65132;52.088;5.402;2023-04-08T01:40:41;102439.16;;;7.41;100.00
76321;BME280;65132;52.088;5.402;2023-04-08T01:43:13;102434.22;;;7.33;100.00
76321;BME280;65132;52.088;5.402;2023-04-08T01:45:46;102432.72;;;7.27;100.00
76321;BME280;65132;52.088;5.402;2023-04-08T01:48:14;102435.09;;;7.34;100.00
76321;BME280;65132;52.088;5.402;2023-04-08T01:50:42;102437.22;;;7.27;100.00
76321;BME280;65132;52.088;5.402;2023-04-08T01:53:11;102446.88;;;7.31;100.00
76321;BME280;65132;52.088;5.402;2023-04-08T01:55:39;102444.38;;;7.28;100.00
76321;BME280;65132;52.088;5.402;2023-04-08T01:58:11;102448.59;;;7.16;100.00
76321;BME280;65132;52.088;5.402;2023-04-08T02:00:40;102448.44;;;7.19;100.00
76321;BME280;65132;52.088;5.402;2023-04-08T02:03:07;102439.03;;;7.11;100.00
76321;BME280;65132;52.088;5.402;2023-04-08T02:05:38;102436.25;;;7.12;100.00
76321;BME280;65132;52.088;5.402;2023-04-08T02:08:07;102436.16;;;7.14;100.00
76321;BME280;65132;52.088;5.402;2023-04-08T02:10:33;102432.84;;;7.09;100.00
76321;BME280;65132;52.088;5.402;2023-04-08T02:13:00;102442.13;;;7.03;100.00
76321;BME280;65132;52.088;5.402;2023-04-08T02:15:27;102439.13;;;7.09;100.00
76321;BME280;65132;52.088;5.402;2023-04-08T02:18:05;102439.03;;;7.11;100.00
76321;BME280;65132;52.088;5.402;2023-04-08T02:20:36;102428.25;;;7.11;100.00
76321;BME280;65132;52.088;5.402;2023-04-08T02:23:08;102437.13;;;7.13;100.00
76321;BME280;65132;52.088;5.402;2023-04-08T02:25:37;102439.47;;;7.19;100.00
76321;BME280;65132;52.088;5.402;2023-04-08T02:28:07;102437.22;;;7.11;100.00
76321;BME280;65132;52.088;5.402;2023-04-08T02:30:35;102442.59;;;7.11;100.00
76321;BME280;65132;52.088;5.402;2023-04-08T02:33:03;102438.16;;;7.10;100.00
76321;BME280;65132;52.088;5.402;2023-04-08T02:35:30;102446.84;;;7.15;100.00
76321;BME280;65132;52.088;5.402;2023-04-08T02:37:57;102445.69;;;7.04;100.00
76321;BME280;65132;52.088;5.402;2023-04-08T02:40:29;102449.84;;;6.94;100.00
76321;BME280;65132;52.088;5.402;2023-04-08T02:42:56;102450.47;;;6.99;100.00
76321;BME280;65132;52.088;5.402;2023-04-08T02:45:30;102451.16;;;7.02;100.00
76321;BME280;65132;52.088;5.402;2023-04-08T02:48:00;102447.50;;;7.03;100.00
76321;BME280;65132;52.088;5.402;2023-04-08T02:50:27;102459.94;;;7.06;100.00
76321;BME280;65132;52.088;5.402;2023-04-08T02:52:54;102450.13;;;7.05;100.00
76321;BME280;65132;52.088;5.402;2023-04-08T02:55:21;102457.47;;;7.01;100.00
76321;BME280;65132;52.088;5.402;2023-04-08T02:57:48;102462.63;;;7.06;100.00
76321;BME280;65132;52.088;5.402;2023-04-08T03:00:17;102455.59;;;7.03;100.00
76321;BME280;65132;52.088;5.402;2023-04-08T03:02:43;102455.22;;;6.94;100.00
76321;BME280;65132;52.088;5.402;2023-04-08T03:05:10;102461.38;;;6.96;100.00
76321;BME280;65132;52.088;5.402;2023-04-08T03:07:37;102465.28;;;6.90;100.00
76321;BME280;65132;52.088;5.402;2023-04-08T03:10:04;102465.34;;;6.89;100.00
76321;BME280;65132;52.088;5.402;2023-04-08T03:12:34;102465.34;;;6.89;100.00
76321;BME280;65132;52.088;5.402;2023-04-08T03:15:05;102466.88;;;6.94;100.00
76321;BME280;65132;52.088;5.402;2023-04-08T03:17:32;102464.88;;;6.98;100.00
76321;BME280;65132;52.088;5.402;2023-04-08T03:20:16;102460.50;;;6.95;100.00
76321;BME280;65132;52.088;5.402;2023-04-08T03:22:43;102461.31;;;6.97;100.00
76321;BME280;65132;52.088;5.402;2023-04-08T03:25:09;102463.22;;;6.95;100.00
76321;BME280;65132;52.088;5.402;2023-04-08T03:27:36;102460.78;;;6.91;100.00
76321;BME280;65132;52.088;5.402;2023-04-08T03:30:02;102469.38;;;6.97;100.00
76321;BME280;65132;52.088;5.402;2023-04-08T03:32:29;102467.97;;;6.90;100.00
76321;BME280;65132;52.088;5.402;2023-04-08T03:34:56;102463.31;;;6.77;100.00
76321;BME280;65132;52.088;5.402;2023-04-08T03:37:22;102469.50;;;6.62;100.00
76321;BME280;65132;52.088;5.402;2023-04-08T03:39:48;102459.38;;;6.67;100.00
76321;BME280;65132;52.088;5.402;2023-04-08T03:42:15;102468.44;;;6.64;100.00
76321;BME280;65132;52.088;5.402;2023-04-08T03:44:41;102466.16;;;6.57;100.00
76321;BME280;65132;52.088;5.402;2023-04-08T03:47:08;102469.56;;;6.60;100.00
76321;BME280;65132;52.088;5.402;2023-04-08T03:49:36;102470.66;;;6.56;100.00
76321;BME280;65132;52.088;5.402;2023-04-08T03:52:03;102474.06;;;6.60;100.00
76321;BME280;65132;52.088;5.402;2023-04-08T03:54:29;102476.13;;;6.55;100.00
76321;BME280;65132;52.088;5.402;2023-04-08T03:56:58;102469.06;;;6.52;100.00
76321;BME280;65132;52.088;5.402;2023-04-08T03:59:25;102479.69;;;6.55;100.00
76321;BME280;65132;52.088;5.402;2023-04-08T04:01:51;102480.25;;;6.45;100.00
76321;BME280;65132;52.088;5.402;2023-04-08T04:04:18;102486.09;;;6.53;100.00
76321;BME280;65132;52.088;5.402;2023-04-08T04:06:47;102489.19;;;6.45;100.00
76321;BME280;65132;52.088;5.402;2023-04-08T04:09:13;102484.56;;;6.47;100.00
76321;BME280;65132;52.088;5.402;2023-04-08T04:11:39;102497.25;;;6.45;100.00
76321;BME280;65132;52.088;5.402;2023-04-08T04:14:06;102494.47;;;6.47;100.00
76321;BME280;65132;52.088;5.402;2023-04-08T04:16:32;102497.25;;;6.45;100.00
76321;BME280;65132;52.088;5.402;2023-04-08T04:18:58;102500.25;;;6.39;100.00
76321;BME280;65132;52.088;5.402;2023-04-08T04:21:25;102506.34;;;6.43;100.00
76321;BME280;65132;52.088;5.402;2023-04-08T04:23:52;102515.41;;;6.40;100.00
76321;BME280;65132;52.088;5.402;2023-04-08T04:26:18;102508.31;;;6.39;100.00
76321;BME280;65132;52.088;5.402;2023-04-08T04:28:50;102516.53;;;6.36;100.00
76321;BME280;65132;52.088;5.402;2023-04-08T04:31:26;102519.66;;;6.27;100.00
76321;BME280;65132;52.088;5.402;2023-04-08T04:33:53;102521.19;;;6.33;100.00
76321;BME280;65132;52.088;5.402;2023-04-08T04:36:29;102527.00;;;6.24;100.00
76321;BME280;65132;52.088;5.402;2023-04-08T04:38:58;102527.59;;;6.12;100.00
76321;BME280;65132;52.088;5.402;2023-04-08T04:41:28;102522.16;;;6.13;100.00
76321;BME280;65132;52.088;5.402;2023-04-08T04:43:54;102532.78;;;6.16;100.00
76321;BME280;65132;52.088;5.402;2023-04-08T04:46:23;102534.66;;;6.14;100.00
76321;BME280;65132;52.088;5.402;2023-04-08T04:48:52;102533.50;;;6.20;100.00
76321;BME280;65132;52.088;5.402;2023-04-08T04:51:21;102540.59;;;6.21;100.00
76321;BME280;65132;52.088;5.402;2023-04-08T04:53:48;102530.66;;;6.23;100.00
76321;BME280;65132;52.088;5.402;2023-04-08T04:56:16;102546.72;;;6.24;100.00
76321;BME280;65132;52.088;5.402;2023-04-08T04:58:45;102543.13;;;6.24;100.00
76321;BME280;65132;52.088;5.402;2023-04-08T05:01:11;102543.44;;;6.18;100.00
76321;BME280;65132;52.088;5.402;2023-04-08T05:03:38;102548.31;;;6.09;100.00
76321;BME280;65132;52.088;5.402;2023-04-08T05:06:04;102553.41;;;6.16;100.00
76321;BME280;65132;52.088;5.402;2023-04-08T05:08:39;102554.72;;;6.07;100.00
76321;BME280;65132;52.088;5.402;2023-04-08T05:11:09;102553.63;;;6.11;100.00
76321;BME280;65132;52.088;5.402;2023-04-08T05:13:35;102564.38;;;6.11;100.00
76321;BME280;65132;52.088;5.402;2023-04-08T05:16:02;102563.94;;;6.01;100.00
76321;BME280;65132;52.088;5.402;2023-04-08T05:18:29;102564.00;;;6.00;100.00
76321;BME280;65132;52.088;5.402;2023-04-08T05:20:56;102563.44;;;5.93;100.00
76321;BME280;65132;52.088;5.402;2023-04-08T05:23:23;102566.84;;;5.97;100.00
76321;BME280;65132;52.088;5.402;2023-04-08T05:25:50;102576.66;;;5.98;100.00
76321;BME280;65132;52.088;5.402;2023-04-08T05:28:21;102569.88;;;5.89;100.00
76321;BME280;65132;52.088;5.402;2023-04-08T05:30:53;102580.56;;;5.91;100.00
76321;BME280;65132;52.088;5.402;2023-04-08T05:33:19;102579.81;;;5.87;100.00
76321;BME280;65132;52.088;5.402;2023-04-08T05:35:45;102573.69;;;5.85;100.00
76321;BME280;65132;52.088;5.402;2023-04-08T05:38:12;102572.38;;;5.94;100.00
76321;BME280;65132;52.088;5.402;2023-04-08T05:40:38;102572.00;;;5.83;100.00
76321;BME280;65132;52.088;5.402;2023-04-08T05:43:04;102576.22;;;5.88;100.00
76321;BME280;65132;52.088;5.402;2023-04-08T05:45:32;102582.09;;;5.96;100.00
76321;BME280;65132;52.088;5.402;2023-04-08T05:47:58;102588.53;;;5.92;100.00
76321;BME280;65132;52.088;5.402;2023-04-08T05:50:30;102586.25;;;6.03;100.00
76321;BME280;65132;52.088;5.402;2023-04-08T05:53:00;102589.22;;;5.97;100.00
76321;BME280;65132;52.088;5.402;2023-04-08T05:55:30;102585.00;;;5.92;100.00
76321;BME280;65132;52.088;5.402;2023-04-08T05:57:57;102594.72;;;5.94;100.00
76321;BME280;65132;52.088;5.402;2023-04-08T06:00:23;102587.34;;;5.79;100.00
76321;BME280;65132;52.088;5.402;2023-04-08T06:02:50;102587.63;;;5.93;100.00
76321;BME280;65132;52.088;5.402;2023-04-08T06:05:16;102592.19;;;5.91;100.00
76321;BME280;65132;52.088;5.402;2023-04-08T06:07:43;102598.59;;;5.89;100.00
76321;BME280;65132;52.088;5.402;2023-04-08T06:10:11;102599.75;;;5.83;100.00
76321;BME280;65132;52.088;5.402;2023-04-08T06:12:39;102596.03;;;5.86;100.00
76321;BME280;65132;52.088;5.402;2023-04-08T06:15:07;102599.16;;;5.95;100.00
76321;BME280;65132;52.088;5.402;2023-04-08T06:17:38;102602.44;;;5.83;100.00
76321;BME280;65132;52.088;5.402;2023-04-08T06:20:07;102599.28;;;5.92;100.00
76321;BME280;65132;52.088;5.402;2023-04-08T06:22:34;102600.41;;;6.07;99.80
76321;BME280;65132;52.088;5.402;2023-04-08T06:25:01;102603.16;;;6.05;98.67
76321;BME280;65132;52.088;5.402;2023-04-08T06:27:29;102609.34;;;6.07;97.92
76321;BME280;65132;52.088;5.402;2023-04-08T06:29:58;102614.88;;;6.23;98.24
76321;BME280;65132;52.088;5.402;2023-04-08T06:32:27;102620.66;;;6.33;98.08
76321;BME280;65132;52.088;5.402;2023-04-08T06:34:54;102623.63;;;6.45;96.97
76321;BME280;65132;52.088;5.402;2023-04-08T06:37:20;102624.41;;;6.47;95.63
76321;BME280;65132;52.088;5.402;2023-04-08T06:39:48;102624.22;;;6.52;95.91
76321;BME280;65132;52.088;5.402;2023-04-08T06:42:15;102631.97;;;6.58;94.89
76321;BME280;65132;52.088;5.402;2023-04-08T06:44:41;102635.88;;;6.69;93.19
76321;BME280;65132;52.088;5.402;2023-04-08T06:47:07;102640.56;;;6.83;92.50
76321;BME280;65132;52.088;5.402;2023-04-08T06:49:34;102642.72;;;6.93;92.34
76321;BME280;65132;52.088;5.402;2023-04-08T06:52:03;102643.06;;;7.21;92.03
76321;BME280;65132;52.088;5.402;2023-04-08T06:54:31;102642.19;;;7.21;87.75
76321;BME280;65132;52.088;5.402;2023-04-08T06:56:57;102643.69;;;7.09;89.80
76321;BME280;65132;52.088;5.402;2023-04-08T06:59:26;102652.25;;;7.17;88.35
76321;BME280;65132;52.088;5.402;2023-04-08T07:01:54;102643.63;;;7.45;88.11
76321;BME280;65132;52.088;5.402;2023-04-08T07:04:20;102642.88;;;7.76;88.58
76321;BME280;65132;52.088;5.402;2023-04-08T07:06:47;102656.06;;;7.80;86.12
76321;BME280;65132;52.088;5.402;2023-04-08T07:09:13;102652.69;;;8.09;86.89
76321;BME280;65132;52.088;5.402;2023-04-08T07:11:39;102657.41;;;8.21;84.81
76321;BME280;65132;52.088;5.402;2023-04-08T07:14:07;102664.25;;;8.11;83.27
76321;BME280;65132;52.088;5.402;2023-04-08T07:16:35;102662.66;;;8.40;83.03
76321;BME280;65132;52.088;5.402;2023-04-08T07:19:02;102660.66;;;8.28;83.02
76321;BME280;65132;52.088;5.402;2023-04-08T07:21:28;102663.19;;;8.62;82.54
76321;BME280;65132;52.088;5.402;2023-04-08T07:23:54;102676.94;;;8.89;81.53
76321;BME280;65132;52.088;5.402;2023-04-08T07:26:21;102677.19;;;9.00;80.32
76321;BME280;65132;52.088;5.402;2023-04-08T07:28:59;102683.09;;;9.06;79.66
76321;BME280;65132;52.088;5.402;2023-04-08T07:31:28;102686.56;;;9.24;79.03
76321;BME280;65132;52.088;5.402;2023-04-08T07:33:55;102682.47;;;9.17;78.71
76321;BME280;65132;52.088;5.402;2023-04-08T07:36:21;102683.47;;;9.30;79.31
76321;BME280;65132;52.088;5.402;2023-04-08T07:38:47;102684.06;;;9.64;77.74
76321;BME280;65132;52.088;5.402;2023-04-08T07:41:14;102678.16;;;9.58;74.63
76321;BME280;65132;52.088;5.402;2023-04-08T07:43:44;102688.34;;;9.83;73.98
76321;BME280;65132;52.088;5.402;2023-04-08T07:46:13;102683.53;;;10.02;73.46
76321;BME280;65132;52.088;5.402;2023-04-08T07:48:40;102687.25;;;10.29;72.47
76321;BME280;65132;52.088;5.402;2023-04-08T07:51:07;102684.34;;;10.18;71.82
76321;BME280;65132;52.088;5.402;2023-04-08T07:53:38;102691.72;;;9.72;74.20
76321;BME280;65132;52.088;5.402;2023-04-08T07:56:13;102689.28;;;10.11;75.47
76321;BME280;65132;52.088;5.402;2023-04-08T07:58:40;102684.22;;;10.47;73.50
76321;BME280;65132;52.088;5.402;2023-04-08T08:01:17;102689.03;;;10.70;72.31
76321;BME280;65132;52.088;5.402;2023-04-08T08:03:47;102688.41;;;10.79;72.61
76321;BME280;65132;52.088;5.402;2023-04-08T08:06:14;102687.25;;;11.10;70.37
76321;BME280;65132;52.088;5.402;2023-04-08T08:08:41;102679.34;;;11.46;68.30
76321;BME280;65132;52.088;5.402;2023-04-08T08:11:07;102684.69;;;11.60;69.45
76321;BME280;65132;52.088;5.402;2023-04-08T08:13:33;102678.41;;;11.60;69.23
76321;BME280;65132;52.088;5.402;2023-04-08T08:16:00;102682.75;;;11.62;69.56
76321;BME280;65132;52.088;5.402;2023-04-08T08:18:28;102684.44;;;12.02;68.23
76321;BME280;65132;52.088;5.402;2023-04-08T08:21:00;102679.44;;;12.34;66.98
76321;BME280;65132;52.088;5.402;2023-04-08T08:23:27;102684.41;;;12.40;67.30
76321;BME280;65132;52.088;5.402;2023-04-08T08:26:04;102683.06;;;12.58;66.36
76321;BME280;65132;52.088;5.402;2023-04-08T08:28:36;102686.72;;;13.06;64.78
76321;BME280;65132;52.088;5.402;2023-04-08T08:31:03;102685.44;;;12.99;64.95
76321;BME280;65132;52.088;5.402;2023-04-08T08:33:29;102683.53;;;12.88;61.93
76321;BME280;65132;52.088;5.402;2023-04-08T08:35:56;102692.13;;;12.46;65.43
76321;BME280;65132;52.088;5.402;2023-04-08T08:38:22;102690.91;;;12.50;64.96
76321;BME280;65132;52.088;5.402;2023-04-08T08:40:56;102703.78;;;12.72;66.49
76321;BME280;65132;52.088;5.402;2023-04-08T08:43:23;102702.84;;;13.33;62.81
76321;BME280;65132;52.088;5.402;2023-04-08T08:45:53;102698.69;;;13.51;62.01
76321;BME280;65132;52.088;5.402;2023-04-08T08:48:21;102705.78;;;13.30;60.22
76321;BME280;65132;52.088;5.402;2023-04-08T08:50:48;102703.47;;;13.00;61.74
76321;BME280;65132;52.088;5.402;2023-04-08T08:53:14;102702.84;;;13.33;60.47
76321;BME280;65132;52.088;5.402;2023-04-08T08:55:43;102702.53;;;13.24;61.50
76321;BME280;65132;52.088;5.402;2023-04-08T08:58:29;102708.25;;;13.67;60.97
76321;BME280;65132;52.088;5.402;2023-04-08T09:00:59;102704.69;;;14.23;59.68
76321;BME280;65132;52.088;5.402;2023-04-08T09:03:26;102700.66;;;14.40;58.62
76321;BME280;65132;52.088;5.402;2023-04-08T09:05:56;102708.31;;;14.68;58.45
76321;BME280;65132;52.088;5.402;2023-04-08T09:08:27;102700.88;;;14.59;56.94
76321;BME280;65132;52.088;5.402;2023-04-08T09:10:55;102706.56;;;14.56;56.91
76321;BME280;65132;52.088;5.402;2023-04-08T09:13:22;102710.75;;;14.93;56.73
76321;BME280;65132;52.088;5.402;2023-04-08T09:16:09;102709.56;;;14.53;56.26
76321;BME280;65132;52.088;5.402;2023-04-08T09:18:36;102712.50;;;14.83;57.02
76321;BME280;65132;52.088;5.402;2023-04-08T09:21:06;102713.84;;;14.89;55.60
76321;BME280;65132;52.088;5.402;2023-04-08T09:26:20;102713.34;;;15.37;56.39
76321;BME280;65132;52.088;5.402;2023-04-08T09:29:03;102720.69;;;15.37;54.80
76321;BME280;65132;52.088;5.402;2023-04-08T09:31:54;102715.34;;;14.93;54.94
76321;BME280;65132;52.088;5.402;2023-04-08T09:34:21;102728.50;;;15.41;53.42
76321;BME280;65132;52.088;5.402;2023-04-08T09:36:51;102725.56;;;15.65;54.11
76321;BME280;65132;52.088;5.402;2023-04-08T09:39:17;102721.53;;;15.48;53.95
76321;BME280;65132;52.088;5.402;2023-04-08T09:41:49;102724.22;;;15.80;52.71
76321;BME280;65132;52.088;5.402;2023-04-08T09:44:16;102726.00;;;15.38;54.84
76321;BME280;65132;52.088;5.402;2023-04-08T09:49:31;102722.91;;;15.75;53.60
76321;BME280;65132;52.088;5.402;2023-04-08T09:52:29;102724.03;;;16.13;52.68
76321;BME280;65132;52.088;5.402;2023-04-08T09:55:01;102724.31;;;16.31;51.42
76321;BME280;65132;52.088;5.402;2023-04-08T09:58:03;102718.28;;;16.67;51.15
76321;BME280;65132;52.088;5.402;2023-04-08T10:00:42;102721.03;;;15.96;53.25
76321;BME280;65132;52.088;5.402;2023-04-08T10:06:01;102714.88;;;16.65;50.92
76321;BME280;65132;52.088;5.402;2023-04-08T10:08:29;102719.84;;;17.00;51.39
76321;BME280;65132;52.088;5.402;2023-04-08T10:10:57;102713.84;;;17.06;50.30
76321;BME280;65132;52.088;5.402;2023-04-08T10:13:24;102712.72;;;17.27;49.31
76321;BME280;65132;52.088;5.402;2023-04-08T10:16:17;102712.13;;;17.33;47.46
76321;BME280;65132;52.088;5.402;2023-04-08T10:18:44;102713.44;;;17.39;46.77
76321;BME280;65132;52.088;5.402;2023-04-08T10:21:34;102714.47;;;17.47;47.45
76321;BME280;65132;52.088;5.402;2023-04-08T10:24:01;102711.03;;;17.55;46.15
76321;BME280;65132;52.088;5.402;2023-04-08T10:26:32;102699.19;;;17.92;44.25
76321;BME280;65132;52.088;5.402;2023-04-08T10:31:48;102706.78;;;18.08;43.06
76321;BME280;65132;52.088;5.402;2023-04-08T10:34:18;102702.22;;;17.80;43.34
76321;BME280;65132;52.088;5.402;2023-04-08T10:36:46;102706.38;;;18.03;44.93
76321;BME280;65132;52.088;5.402;2023-04-08T10:39:13;102699.69;;;18.25;43.31
76321;BME280;65132;52.088;5.402;2023-04-08T10:41:45;102703.66;;;18.59;44.04
76321;BME280;65132;52.088;5.402;2023-04-08T10:44:20;102703.84;;;18.75;43.16
76321;BME280;65132;52.088;5.402;2023-04-08T10:46:56;102704.69;;;18.39;42.16
76321;BME280;65132;52.088;5.402;2023-04-08T10:49:31;102701.03;;;18.02;43.56
76321;BME280;65132;52.088;5.402;2023-04-08T10:52:05;102706.66;;;18.92;43.38
76321;BME280;65132;52.088;5.402;2023-04-08T10:54:32;102700.59;;;18.89;42.09
76321;BME280;65132;52.088;5.402;2023-04-08T10:56:58;102694.03;;;18.99;43.94
76321;BME280;65132;52.088;5.402;2023-04-08T10:59:30;102700.75;;;18.60;41.82
76321;BME280;65132;52.088;5.402;2023-04-08T11:01:59;102696.94;;;18.71;43.42
76321;BME280;65132;52.088;5.402;2023-04-08T11:04:28;102700.28;;;18.65;43.01
76321;BME280;65132;52.088;5.402;2023-04-08T11:06:59;102692.81;;;19.12;43.05
76321;BME280;65132;52.088;5.402;2023-04-08T11:09:33;102692.25;;;19.08;42.07
76321;BME280;65132;52.088;5.402;2023-04-08T11:12:02;102688.66;;;19.25;42.27
76321;BME280;65132;52.088;5.402;2023-04-08T11:14:29;102678.22;;;20.24;42.76
76321;BME280;65132;52.088;5.402;2023-04-08T11:16:56;102676.22;;;20.35;38.32
76321;BME280;65132;52.088;5.402;2023-04-08T11:19:23;102685.03;;;19.95;39.34
76321;BME280;65132;52.088;5.402;2023-04-08T11:21:52;102684.94;;;20.04;39.94
76321;BME280;65132;52.088;5.402;2023-04-08T11:24:18;102682.31;;;19.77;39.64
76321;BME280;65132;52.088;5.402;2023-04-08T11:26:45;102674.16;;;20.37;39.35
76321;BME280;65132;52.088;5.402;2023-04-08T11:29:14;102679.06;;;19.82;39.82
76321;BME280;65132;52.088;5.402;2023-04-08T11:31:45;102677.34;;;19.98;37.86
76321;BME280;65132;52.088;5.402;2023-04-08T11:34:11;102676.16;;;20.52;36.00
76321;BME280;65132;52.088;5.402;2023-04-08T11:36:49;102672.63;;;20.68;34.76
76321;BME280;65132;52.088;5.402;2023-04-08T11:39:15;102670.84;;;20.25;35.52
76321;BME280;65132;52.088;5.402;2023-04-08T11:41:44;102675.03;;;20.11;36.76
76321;BME280;65132;52.088;5.402;2023-04-08T11:44:12;102673.84;;;19.71;36.53
76321;BME280;65132;52.088;5.402;2023-04-08T11:46:39;102684.22;;;19.59;38.11
76321;BME280;65132;52.088;5.402;2023-04-08T11:49:09;102675.00;;;19.86;37.02
76321;BME280;65132;52.088;5.402;2023-04-08T11:51:57;102682.09;;;19.53;33.22
76321;BME280;65132;52.088;5.402;2023-04-08T11:54:30;102674.94;;;20.21;32.57
76321;BME280;65132;52.088;5.402;2023-04-08T11:56:57;102680.84;;;20.60;34.32
76321;BME280;65132;52.088;5.402;2023-04-08T11:59:25;102680.47;;;20.55;32.30
76321;BME280;65132;52.088;5.402;2023-04-08T12:01:56;102686.97;;;20.54;33.31
76321;BME280;65132;52.088;5.402;2023-04-08T12:04:23;102690.09;;;20.59;32.03
76321;BME280;65132;52.088;5.402;2023-04-08T12:06:50;102689.53;;;21.38;32.96
76321;BME280;65132;52.088;5.402;2023-04-08T12:09:16;102685.28;;;21.60;32.73
76321;BME280;65132;52.088;5.402;2023-04-08T12:11:42;102674.28;;;21.92;29.98
76321;BME280;65132;52.088;5.402;2023-04-08T12:14:09;102682.38;;;21.78;29.13
76321;BME280;65132;52.088;5.402;2023-04-08T12:16:35;102677.16;;;22.23;28.60
76321;BME280;65132;52.088;5.402;2023-04-08T12:19:02;102674.28;;;21.84;29.42
76321;BME280;65132;52.088;5.402;2023-04-08T12:21:28;102679.31;;;21.07;28.33
76321;BME280;65132;52.088;5.402;2023-04-08T12:23:54;102668.22;;;21.57;30.52
76321;BME280;65132;52.088;5.402;2023-04-08T12:26:25;102670.31;;;21.87;28.26
76321;BME280;65132;52.088;5.402;2023-04-08T12:28:54;102680.41;;;22.34;26.42
76321;BME280;65132;52.088;5.402;2023-04-08T12:31:20;102675.47;;;21.90;26.42
76321;BME280;65132;52.088;5.402;2023-04-08T12:33:48;102666.44;;;21.15;25.69
76321;BME280;65132;52.088;5.402;2023-04-08T12:36:14;102673.09;;;21.79;27.04
76321;BME280;65132;52.088;5.402;2023-04-08T12:38:42;102668.56;;;21.62;26.73
76321;BME280;65132;52.088;5.402;2023-04-08T12:41:08;102670.47;;;21.53;27.95
76321;BME280;65132;52.088;5.402;2023-04-08T12:43:36;102675.94;;;20.46;27.45
76321;BME280;65132;52.088;5.402;2023-04-08T12:46:05;102681.06;;;19.72;29.90
76321;BME280;65132;52.088;5.402;2023-04-08T12:48:31;102666.38;;;19.28;30.50
76321;BME280;65132;52.088;5.402;2023-04-08T12:50:57;102674.97;;;19.43;28.54
76321;BME280;65132;52.088;5.402;2023-04-08T12:53:24;102670.41;;;18.89;28.74
76321;BME280;65132;52.088;5.402;2023-04-08T12:55:54;102681.34;;;18.71;29.19
76321;BME280;65132;52.088;5.402;2023-04-08T12:58:20;102668.25;;;19.28;28.94
76321;BME280;65132;52.088;5.402;2023-04-08T13:00:50;102678.13;;;19.03;30.18
76321;BME280;65132;52.088;5.402;2023-04-08T13:03:19;102673.03;;;19.08;31.66
76321;BME280;65132;52.088;5.402;2023-04-08T13:05:45;102672.09;;;19.44;31.08
76321;BME280;65132;52.088;5.402;2023-04-08T13:08:13;102671.69;;;19.39;32.14
76321;BME280;65132;52.088;5.402;2023-04-08T13:10:40;102673.09;;;19.61;30.86
76321;BME280;65132;52.088;5.402;2023-04-08T13:13:09;102663.53;;;20.75;29.69
76321;BME280;65132;52.088;5.402;2023-04-08T13:15:35;102685.25;;;21.36;28.81